createdAt,value
2022-11-06T00:01:09.198Z,85.90
2022-11-06T00:03:36.235Z,29.88
2022-11-06T00:06:34.509Z,49.88
2022-11-06T00:09:02.961Z,17.02
2022-11-06T00:11:30.177Z,14.40
2022-11-06T00:13:57.268Z,14.43
2022-11-06T00:16:24.379Z,12.45
2022-11-06T00:18:50.863Z,13.88
2022-11-06T00:21:19.899Z,12.32
2022-11-06T00:23:47.146Z,12.50
2022-11-06T00:26:16.529Z,12.60
2022-11-06T00:28:43.801Z,13.82
2022-11-06T00:31:13.408Z,11.40
2022-11-06T00:33:40.419Z,13.38
2022-11-06T00:36:08.972Z,14.00
2022-11-06T00:38:35.599Z,14.98
2022-11-06T00:41:04.244Z,14.05
2022-11-06T00:43:30.902Z,15.30
2022-11-06T00:46:04.224Z,17.50
2022-11-06T00:48:30.767Z,17.02
2022-11-06T00:51:03.065Z,49.40
2022-11-06T00:53:29.571Z,18.83
2022-11-06T00:56:03.076Z,15.65
2022-11-06T00:58:29.491Z,15.82
2022-11-06T01:00:55.898Z,15.85
2022-11-06T01:03:22.379Z,15.10
2022-11-06T01:05:48.778Z,15.52
2022-11-06T01:08:15.401Z,15.70
2022-11-06T01:10:42.013Z,16.27
2022-11-06T01:13:08.435Z,14.15
2022-11-06T01:15:37.074Z,15.60
2022-11-06T01:18:03.634Z,15.75
2022-11-06T01:20:30.032Z,17.17
2022-11-06T01:22:56.475Z,14.82
2022-11-06T01:25:22.896Z,15.85
2022-11-06T01:27:49.290Z,15.85
2022-11-06T01:30:15.721Z,15.10
2022-11-06T01:32:42.269Z,14.02
2022-11-06T01:35:08.939Z,13.68
2022-11-06T01:37:35.456Z,13.80
2022-11-06T01:40:02.017Z,23.15
2022-11-06T01:42:28.453Z,15.90
2022-11-06T01:45:19.701Z,14.20
2022-11-06T01:47:46.387Z,13.65
2022-11-06T01:50:15.750Z,47.88
2022-11-06T01:52:44.523Z,56.30
2022-11-06T01:55:25.628Z,84.00
2022-11-06T01:57:52.781Z,63.17
2022-11-06T02:00:20.198Z,34.97
2022-11-06T02:02:47.496Z,22.08
2022-11-06T02:05:14.311Z,14.77
2022-11-06T02:07:42.739Z,15.60
2022-11-06T02:10:09.962Z,19.42
2022-11-06T02:12:46.945Z,23.73
2022-11-06T02:15:54.553Z,23.50
2022-11-06T02:18:32.835Z,23.40
2022-11-06T02:20:59.258Z,17.45
2022-11-06T02:23:36.489Z,19.20
2022-11-06T02:26:27.290Z,17.63
2022-11-06T02:29:01.250Z,17.63
2022-11-06T02:31:32.631Z,16.27
2022-11-06T02:34:04.630Z,14.98
2022-11-06T02:36:37.638Z,16.35
2022-11-06T02:39:11.007Z,14.77
2022-11-06T02:41:42.579Z,16.38
2022-11-06T02:44:13.988Z,14.15
2022-11-06T02:49:17.297Z,15.30
2022-11-06T02:51:51.207Z,22.73
2022-11-06T02:54:20.547Z,49.75
2022-11-06T02:56:52.593Z,40.60
2022-11-06T02:59:25.463Z,23.17
2022-11-06T03:01:58.214Z,15.20
2022-11-06T03:04:33.759Z,13.30
2022-11-06T03:07:10.210Z,12.50
2022-11-06T03:09:36.927Z,13.35
2022-11-06T03:12:21.337Z,13.27
2022-11-06T03:14:59.602Z,12.23
2022-11-06T03:17:37.892Z,11.35
2022-11-06T03:20:25.588Z,11.00
2022-11-06T03:23:01.018Z,21.60
2022-11-06T03:25:35.507Z,29.23
2022-11-06T03:28:12.393Z,14.98
2022-11-06T03:30:50.698Z,24.17
2022-11-06T03:33:19.533Z,12.48
2022-11-06T03:35:54.889Z,10.57
2022-11-06T03:38:45.561Z,11.00
2022-11-06T03:41:18.392Z,10.95
2022-11-06T03:43:48.151Z,12.13
2022-11-06T03:46:19.409Z,10.60
2022-11-06T03:48:52.635Z,11.02
2022-11-06T03:51:58.376Z,13.90
2022-11-06T03:54:38.418Z,55.67
2022-11-06T03:57:47.258Z,46.35
2022-11-06T04:00:14.845Z,30.73
2022-11-06T04:02:47.382Z,18.05
2022-11-06T04:05:19.306Z,11.82
2022-11-06T04:08:08.309Z,10.57
2022-11-06T04:10:56.028Z,10.88
2022-11-06T04:13:42.860Z,11.55
2022-11-06T04:16:11.158Z,10.73
2022-11-06T04:18:37.679Z,22.35
2022-11-06T04:21:26.027Z,11.88
2022-11-06T04:24:26.422Z,11.63
2022-11-06T04:27:15.918Z,11.38
2022-11-06T04:30:13.607Z,9.57
2022-11-06T04:33:00.417Z,9.68
2022-11-06T04:35:45.049Z,10.70
2022-11-06T04:38:16.194Z,11.40
2022-11-06T04:43:28.555Z,11.50
2022-11-06T04:45:59.512Z,11.50
2022-11-06T04:48:27.162Z,10.88
2022-11-06T04:50:59.122Z,10.55
2022-11-06T04:53:26.144Z,10.95
2022-11-06T04:55:54.955Z,12.15
2022-11-06T04:58:21.439Z,12.35
2022-11-06T05:00:50.546Z,11.38
2022-11-06T05:03:18.634Z,12.80
2022-11-06T05:05:45.093Z,9.88
2022-11-06T05:08:19.596Z,11.25
2022-11-06T05:10:46.853Z,8.60
2022-11-06T05:13:14.230Z,8.63
2022-11-06T05:15:41.060Z,10.13
2022-11-06T05:18:07.568Z,13.98
2022-11-06T05:20:34.079Z,13.70
2022-11-06T05:23:00.988Z,10.75
2022-11-06T05:25:40.123Z,9.80
2022-11-06T05:28:08.345Z,9.55
2022-11-06T05:30:37.185Z,9.48
2022-11-06T05:33:03.812Z,18.40
2022-11-06T05:35:30.264Z,13.70
2022-11-06T05:38:01.808Z,11.55
2022-11-06T05:42:54.577Z,9.60
2022-11-06T05:45:21.150Z,9.80
2022-11-06T05:47:47.564Z,9.90
2022-11-06T05:50:14.010Z,12.05
2022-11-06T05:52:40.443Z,10.10
2022-11-06T05:55:11.590Z,16.75
2022-11-06T05:57:40.797Z,10.48
2022-11-06T06:00:08.162Z,8.65
2022-11-06T06:02:36.877Z,16.05
2022-11-06T06:05:04.438Z,12.40
2022-11-06T06:07:31.639Z,11.25
2022-11-06T06:09:58.172Z,25.65
2022-11-06T06:12:26.340Z,14.75
2022-11-06T06:14:53.863Z,11.27
2022-11-06T06:17:20.923Z,10.55
2022-11-06T06:19:48.245Z,10.48
2022-11-06T06:22:14.690Z,10.80
2022-11-06T06:24:41.739Z,11.65
2022-11-06T06:27:08.302Z,10.48
2022-11-06T06:29:34.748Z,11.40
2022-11-06T06:32:01.134Z,9.82
2022-11-06T06:34:27.538Z,10.30
2022-11-06T06:36:54.289Z,11.00
2022-11-06T06:39:21.389Z,10.60
2022-11-06T06:41:48.813Z,11.07
2022-11-06T06:44:16.213Z,11.10
2022-11-06T06:46:42.698Z,15.65
2022-11-06T06:49:09.167Z,15.95
2022-11-06T06:51:35.588Z,11.57
2022-11-06T06:54:03.609Z,11.20
2022-11-06T06:56:30.086Z,11.88
2022-11-06T06:58:56.579Z,11.75
2022-11-06T07:01:23.114Z,98.72
2022-11-06T07:03:49.695Z,17.00
2022-11-06T07:06:19.379Z,13.02
2022-11-06T07:08:45.981Z,12.15
2022-11-06T07:11:12.631Z,10.27
2022-11-06T07:13:39.055Z,11.23
2022-11-06T07:16:07.623Z,17.42
2022-11-06T07:18:34.915Z,49.53
2022-11-06T07:21:04.869Z,41.88
2022-11-06T07:23:31.339Z,25.30
2022-11-06T07:25:57.808Z,22.75
2022-11-06T07:28:24.228Z,35.65
2022-11-06T07:30:50.669Z,23.08
2022-11-06T07:33:17.095Z,13.70
2022-11-06T07:35:44.451Z,12.27
2022-11-06T07:38:11.025Z,11.27
2022-11-06T07:40:37.752Z,10.50
2022-11-06T07:43:09.512Z,10.18
2022-11-06T07:45:36.876Z,10.30
2022-11-06T07:48:05.039Z,8.98
2022-11-06T07:50:32.163Z,8.88
2022-11-06T07:53:03.030Z,9.43
2022-11-06T07:55:30.197Z,9.05
2022-11-06T07:57:59.339Z,10.90
2022-11-06T08:00:25.819Z,11.57
2022-11-06T08:02:53.441Z,10.38
2022-11-06T08:05:20.614Z,13.98
2022-11-06T08:07:47.186Z,14.68
2022-11-06T08:10:13.742Z,11.25
2022-11-06T08:12:40.167Z,9.73
2022-11-06T08:15:07.136Z,8.35
2022-11-06T08:17:33.547Z,8.68
2022-11-06T08:19:59.935Z,8.82
2022-11-06T08:22:26.355Z,9.48
2022-11-06T08:24:52.800Z,8.48
2022-11-06T08:27:19.248Z,7.60
2022-11-06T08:29:45.721Z,8.75
2022-11-06T08:32:12.216Z,8.88
2022-11-06T08:34:38.848Z,8.93
2022-11-06T08:37:05.362Z,8.52
2022-11-06T08:39:31.905Z,8.20
2022-11-06T08:41:58.393Z,8.18
2022-11-06T08:44:24.895Z,8.98
2022-11-06T08:46:52.253Z,8.52
2022-11-06T08:49:19.122Z,7.43
2022-11-06T08:51:45.640Z,8.10
2022-11-06T08:54:12.313Z,6.80
2022-11-06T08:56:38.920Z,7.93
2022-11-06T08:59:05.428Z,8.55
2022-11-06T09:01:32.028Z,8.10
2022-11-06T09:03:58.597Z,8.05
2022-11-06T09:06:25.736Z,7.53
2022-11-06T09:08:52.188Z,7.28
2022-11-06T09:11:18.609Z,7.65
2022-11-06T09:13:44.996Z,6.80
2022-11-06T09:16:15.567Z,6.75
2022-11-06T09:18:43.110Z,7.30
2022-11-06T09:21:09.576Z,7.85
2022-11-06T09:23:36.128Z,7.13
2022-11-06T09:26:02.572Z,7.35
2022-11-06T09:28:28.973Z,7.53
2022-11-06T09:30:55.462Z,9.10
2022-11-06T09:33:21.899Z,11.60
2022-11-06T09:35:48.309Z,18.58
2022-11-06T09:38:17.367Z,17.48
2022-11-06T09:40:53.518Z,28.73
2022-11-06T09:44:04.246Z,15.35
2022-11-06T09:46:39.012Z,34.05
2022-11-06T09:49:15.252Z,12.23
2022-11-06T09:51:44.327Z,9.93
2022-11-06T09:54:19.930Z,44.33
2022-11-06T09:56:49.684Z,24.13
2022-11-06T09:59:19.310Z,16.08
2022-11-06T10:01:51.358Z,9.45
2022-11-06T10:04:41.265Z,7.80
2022-11-06T10:07:34.194Z,8.98
2022-11-06T10:10:02.460Z,8.90
2022-11-06T10:12:39.877Z,9.02
2022-11-06T10:15:18.153Z,10.95
2022-11-06T10:18:05.935Z,10.00
2022-11-06T10:20:51.483Z,8.82
2022-11-06T10:23:50.227Z,9.30
2022-11-06T10:26:34.075Z,9.40
2022-11-06T10:29:12.731Z,9.93
2022-11-06T10:31:46.834Z,9.00
2022-11-06T10:34:21.082Z,7.18
2022-11-06T10:36:54.959Z,8.75
2022-11-06T10:39:48.517Z,8.65
2022-11-06T10:42:19.148Z,8.32
2022-11-06T10:44:56.690Z,7.53
2022-11-06T10:47:27.116Z,7.78
2022-11-06T10:49:57.355Z,7.37
2022-11-06T10:52:45.531Z,8.13
2022-11-06T10:55:36.914Z,7.00
2022-11-06T10:58:05.030Z,20.45
2022-11-06T11:00:33.671Z,12.93
2022-11-06T11:03:02.298Z,16.27
2022-11-06T11:05:40.447Z,9.23
2022-11-06T11:08:26.942Z,9.02
2022-11-06T11:11:05.335Z,7.97
2022-11-06T11:13:32.786Z,7.50
2022-11-06T11:15:59.371Z,6.93
2022-11-06T11:18:34.345Z,7.90
2022-11-06T11:21:27.786Z,7.07
2022-11-06T11:24:10.913Z,8.75
2022-11-06T11:26:46.810Z,8.02
2022-11-06T11:29:22.566Z,8.80
2022-11-06T11:31:56.242Z,8.80
2022-11-06T11:34:29.414Z,8.52
2022-11-06T11:37:04.596Z,8.43
2022-11-06T11:39:35.193Z,7.68
2022-11-06T11:42:29.474Z,7.30
2022-11-06T11:45:18.775Z,6.93
2022-11-06T11:47:51.407Z,7.32
2022-11-06T11:50:19.922Z,7.32
2022-11-06T11:52:49.597Z,7.78
2022-11-06T11:55:22.141Z,7.55
2022-11-06T11:57:51.324Z,7.55
2022-11-06T12:00:23.576Z,7.90
2022-11-06T12:02:54.498Z,8.02
2022-11-06T12:05:32.861Z,8.98
2022-11-06T12:08:00.648Z,7.95
2022-11-06T12:10:27.072Z,7.75
2022-11-06T12:12:55.700Z,7.35
2022-11-06T12:15:33.408Z,7.50
2022-11-06T12:18:16.688Z,7.47
2022-11-06T12:20:57.248Z,7.00
2022-11-06T12:23:29.491Z,7.43
2022-11-06T12:26:37.220Z,9.02
2022-11-06T12:29:15.721Z,7.05
2022-11-06T12:31:50.213Z,6.97
2022-11-06T12:34:25.936Z,7.50
2022-11-06T12:37:18.401Z,8.85
2022-11-06T12:39:52.284Z,8.70
2022-11-06T12:42:22.197Z,7.22
2022-11-06T12:44:48.734Z,7.07
2022-11-06T12:47:44.983Z,7.30
2022-11-06T12:50:27.073Z,8.07
2022-11-06T12:52:53.502Z,7.90
2022-11-06T12:55:23.075Z,6.75
2022-11-06T12:58:11.221Z,7.63
2022-11-06T13:00:58.049Z,8.68
2022-11-06T13:03:38.490Z,7.45
2022-11-06T13:06:20.430Z,6.83
2022-11-06T13:09:01.915Z,6.97
2022-11-06T13:12:03.779Z,6.88
2022-11-06T13:14:42.545Z,8.40
2022-11-06T13:17:39.377Z,9.23
2022-11-06T13:20:29.802Z,7.63
2022-11-06T13:23:19.318Z,8.20
2022-11-06T13:25:55.254Z,6.90
2022-11-06T13:28:49.777Z,7.43
2022-11-06T13:31:20.207Z,7.70
2022-11-06T13:33:54.402Z,6.63
2022-11-06T13:36:21.113Z,7.10
2022-11-06T13:38:54.995Z,7.38
2022-11-06T13:41:28.497Z,8.00
2022-11-06T13:43:58.666Z,7.65
2022-11-06T13:46:33.427Z,9.57
2022-11-06T13:49:06.924Z,7.35
2022-11-06T13:51:43.887Z,7.57
2022-11-06T13:54:22.633Z,9.27
2022-11-06T13:57:07.603Z,9.02
2022-11-06T13:59:39.997Z,9.77
2022-11-06T14:02:27.861Z,9.07
2022-11-06T14:05:24.291Z,9.80
2022-11-06T14:07:52.400Z,7.85
2022-11-06T14:10:24.498Z,7.97
2022-11-06T14:12:51.701Z,8.35
2022-11-06T14:15:21.088Z,7.78
2022-11-06T14:17:58.628Z,7.60
2022-11-06T14:20:33.579Z,7.70
2022-11-06T14:23:31.154Z,8.52
2022-11-06T14:26:08.854Z,7.03
2022-11-06T14:28:37.925Z,8.35
2022-11-06T14:31:14.655Z,6.65
2022-11-06T14:33:42.081Z,8.10
2022-11-06T14:36:14.762Z,8.95
2022-11-06T14:38:42.580Z,8.02
2022-11-06T14:41:44.345Z,8.50
2022-11-06T14:44:39.201Z,7.43
2022-11-06T14:47:08.435Z,7.88
2022-11-06T14:49:43.866Z,9.65
2022-11-06T14:52:15.662Z,10.43
2022-11-06T14:54:53.753Z,8.75
2022-11-06T14:57:43.606Z,8.27
2022-11-06T15:00:32.012Z,8.23
2022-11-06T15:02:59.262Z,7.53
2022-11-06T15:05:26.992Z,9.05
2022-11-06T15:08:15.034Z,8.60
2022-11-06T15:10:44.719Z,8.70
2022-11-06T15:13:17.210Z,9.80
2022-11-06T15:15:47.920Z,15.48
2022-11-06T15:18:22.691Z,19.77
2022-11-06T15:20:53.439Z,28.83
2022-11-06T15:23:25.173Z,43.30
2022-11-06T15:26:02.282Z,26.80
2022-11-06T15:28:34.517Z,16.95
2022-11-06T15:31:12.673Z,36.38
2022-11-06T15:33:55.728Z,37.53
2022-11-06T15:36:23.659Z,27.38
2022-11-06T15:38:50.272Z,24.83
2022-11-06T15:41:20.887Z,18.30
2022-11-06T15:43:50.574Z,23.67
2022-11-06T15:46:25.812Z,23.05
2022-11-06T15:49:16.773Z,28.48
2022-11-06T15:52:02.618Z,16.15
2022-11-06T15:54:35.992Z,16.58
2022-11-06T15:57:06.161Z,17.73
2022-11-06T15:59:32.631Z,20.58
2022-11-06T16:02:05.208Z,23.75
2022-11-06T16:04:32.569Z,18.45
2022-11-06T16:07:00.764Z,14.77
2022-11-06T16:09:27.706Z,18.55
2022-11-06T16:11:54.701Z,20.85
2022-11-06T16:14:22.180Z,19.67
2022-11-06T16:16:53.241Z,18.65
2022-11-06T16:19:19.608Z,13.20
2022-11-06T16:21:54.086Z,12.93
2022-11-06T16:24:20.640Z,13.35
2022-11-06T16:26:49.395Z,13.63
2022-11-06T16:29:23.523Z,13.68
2022-11-06T16:32:00.213Z,18.35
2022-11-06T16:34:35.733Z,18.67
2022-11-06T16:37:08.094Z,19.27
2022-11-06T16:39:53.905Z,18.65
2022-11-06T16:42:26.761Z,17.02
2022-11-06T16:44:59.396Z,19.17
2022-11-06T16:47:26.223Z,23.88
2022-11-06T16:49:54.817Z,25.38
2022-11-06T16:52:34.792Z,29.20
2022-11-06T16:55:07.104Z,24.30
2022-11-06T16:57:36.968Z,28.63
2022-11-06T17:00:15.591Z,28.52
2022-11-06T17:02:50.691Z,29.17
2022-11-06T17:05:21.643Z,30.45
2022-11-06T17:07:49.276Z,32.28
2022-11-06T17:10:34.352Z,31.42
2022-11-06T17:13:19.994Z,30.25
2022-11-06T17:15:51.699Z,27.17
2022-11-06T17:18:21.513Z,23.33
2022-11-06T17:20:52.155Z,22.23
2022-11-06T17:23:19.314Z,24.27
2022-11-06T17:25:46.923Z,35.40
2022-11-06T17:28:13.564Z,45.13
2022-11-06T17:30:40.330Z,36.88
2022-11-06T17:33:06.982Z,26.60
2022-11-06T17:35:33.528Z,21.65
2022-11-06T17:38:06.130Z,20.90
2022-11-06T17:40:33.744Z,21.65
2022-11-06T17:43:00.260Z,32.08
2022-11-06T17:45:26.679Z,20.30
2022-11-06T17:47:53.774Z,20.80
2022-11-06T17:50:20.239Z,17.55
2022-11-06T17:52:46.972Z,16.92
2022-11-06T17:55:13.535Z,15.00
2022-11-06T17:57:40.135Z,29.83
2022-11-06T18:00:07.283Z,45.00
2022-11-06T18:02:58.980Z,36.58
2022-11-06T18:05:20.184Z,35.42
2022-11-06T18:07:46.596Z,34.05
2022-11-06T18:10:13.017Z,30.42
2022-11-06T18:12:39.478Z,29.55
2022-11-06T18:15:06.540Z,29.33
2022-11-06T18:17:33.001Z,29.77
2022-11-06T18:19:59.427Z,30.08
2022-11-06T18:22:25.865Z,37.90
2022-11-06T18:24:52.269Z,38.67
2022-11-06T18:27:18.742Z,26.75
2022-11-06T18:29:45.253Z,23.05
2022-11-06T18:32:11.678Z,22.92
2022-11-06T18:34:38.183Z,24.33
2022-11-06T18:37:04.680Z,23.23
2022-11-06T18:39:31.139Z,24.25
2022-11-06T18:41:58.881Z,28.48
2022-11-06T18:44:25.430Z,26.23
2022-11-06T18:46:52.034Z,22.60
2022-11-06T18:49:18.436Z,21.20
2022-11-06T18:51:44.980Z,23.83
2022-11-06T18:54:12.127Z,23.33
2022-11-06T18:56:38.925Z,24.13
2022-11-06T18:59:07.573Z,27.70
2022-11-06T19:01:35.256Z,40.22
2022-11-06T19:04:03.632Z,60.78
2022-11-06T19:06:31.045Z,57.13
2022-11-06T19:08:57.936Z,46.58
2022-11-06T19:11:24.448Z,45.10
2022-11-06T19:13:50.903Z,42.80
2022-11-06T19:16:19.435Z,29.38
2022-11-06T19:18:47.216Z,28.90
2022-11-06T19:21:13.985Z,29.25
2022-11-06T19:23:42.444Z,39.92
2022-11-06T19:26:30.763Z,28.48
2022-11-06T19:28:59.694Z,40.50
2022-11-06T19:31:28.621Z,51.20
2022-11-06T19:33:56.315Z,39.22
2022-11-06T19:36:22.747Z,37.58
2022-11-06T19:38:49.152Z,35.42
2022-11-06T19:41:15.561Z,36.85
2022-11-06T19:43:42.024Z,35.60
2022-11-06T19:46:08.638Z,36.13
2022-11-06T19:48:36.067Z,37.83
2022-11-06T19:51:03.012Z,40.22
2022-11-06T19:53:29.570Z,40.13
2022-11-06T19:55:56.762Z,37.72
2022-11-06T19:58:23.248Z,33.97
2022-11-06T20:00:49.792Z,33.70
2022-11-06T20:03:16.996Z,29.65
2022-11-06T20:05:43.646Z,29.92
2022-11-06T20:08:10.357Z,28.23
2022-11-06T20:10:37.313Z,29.30
2022-11-06T20:13:04.446Z,27.40
2022-11-06T20:15:31.330Z,27.63
2022-11-06T20:17:57.846Z,23.63
2022-11-06T20:20:25.846Z,19.92
2022-11-06T20:22:53.316Z,20.67
2022-11-06T20:25:20.079Z,23.45
2022-11-06T20:27:46.556Z,25.08
2022-11-06T20:30:13.903Z,30.17
2022-11-06T20:32:40.516Z,26.25
2022-11-06T20:35:07.705Z,28.58
2022-11-06T20:37:34.455Z,27.75
2022-11-06T20:40:00.898Z,27.08
2022-11-06T20:42:27.405Z,26.63
2022-11-06T20:44:53.826Z,26.80
2022-11-06T20:47:20.375Z,28.13
2022-11-06T20:49:46.808Z,26.55
2022-11-06T20:52:14.804Z,31.25
2022-11-06T20:54:46.786Z,24.20
2022-11-06T20:57:15.703Z,23.48
2022-11-06T20:59:42.576Z,23.00
2022-11-06T21:02:11.868Z,23.08
2022-11-06T21:04:38.667Z,22.73
2022-11-06T21:07:05.374Z,23.38
2022-11-06T21:09:31.836Z,21.90
2022-11-06T21:11:58.443Z,22.48
2022-11-06T21:14:25.030Z,22.45
2022-11-06T21:16:52.568Z,20.13
2022-11-06T21:19:19.047Z,22.15
2022-11-06T21:21:45.527Z,18.10
2022-11-06T21:24:12.207Z,17.13
2022-11-06T21:26:39.150Z,17.98
2022-11-06T21:29:08.011Z,18.17
2022-11-06T21:31:34.627Z,17.77
2022-11-06T21:34:02.878Z,18.42
2022-11-06T21:36:37.369Z,16.90
2022-11-06T21:39:09.217Z,17.02
2022-11-06T21:41:36.413Z,20.85
2022-11-06T21:44:04.674Z,17.55
2022-11-06T21:46:31.207Z,18.15
2022-11-06T21:48:58.295Z,20.73
2022-11-06T21:51:27.295Z,16.88
2022-11-06T21:54:13.128Z,16.88
2022-11-06T21:56:40.811Z,17.60
2022-11-06T21:59:10.239Z,17.58
2022-11-06T22:01:37.652Z,28.27
2022-11-06T22:04:05.079Z,19.80
2022-11-06T22:06:31.542Z,17.38
2022-11-06T22:08:59.795Z,21.40
2022-11-06T22:11:27.465Z,21.10
2022-11-06T22:13:55.608Z,73.85
2022-11-06T22:16:26.375Z,27.40
2022-11-06T22:18:53.145Z,19.48
2022-11-06T22:21:22.213Z,19.30
2022-11-06T22:23:49.085Z,17.50
2022-11-06T22:26:18.885Z,39.45
2022-11-06T22:28:45.414Z,23.95
2022-11-06T22:31:12.494Z,19.77
2022-11-06T22:33:39.595Z,19.45
2022-11-06T22:36:14.277Z,22.15
2022-11-06T22:38:42.139Z,19.10
2022-11-06T22:41:13.151Z,29.23
2022-11-06T22:43:40.646Z,24.17
2022-11-06T22:46:33.681Z,20.45
2022-11-06T22:49:00.159Z,22.92
2022-11-06T22:51:29.192Z,26.02
2022-11-06T22:53:56.307Z,26.15
2022-11-06T22:56:24.335Z,20.98
2022-11-06T22:58:59.764Z,19.80
2022-11-06T23:01:29.075Z,19.65
2022-11-06T23:03:58.243Z,20.65
2022-11-06T23:06:26.090Z,19.92
2022-11-06T23:08:52.745Z,18.27
2022-11-06T23:11:19.778Z,20.92
2022-11-06T23:13:46.321Z,19.58
2022-11-06T23:16:38.882Z,23.25
2022-11-06T23:19:05.436Z,19.77
2022-11-06T23:21:31.850Z,20.05
2022-11-06T23:23:58.284Z,18.75
2022-11-06T23:26:24.840Z,20.38
2022-11-06T23:28:51.267Z,17.73
2022-11-06T23:31:17.760Z,17.92
2022-11-06T23:33:44.161Z,15.52
2022-11-06T23:36:15.750Z,20.20
2022-11-06T23:38:43.161Z,18.70
2022-11-06T23:41:30.681Z,17.60
2022-11-06T23:43:58.278Z,18.40
2022-11-06T23:46:27.534Z,19.83
2022-11-06T23:48:54.116Z,19.25
2022-11-06T23:51:20.985Z,18.40
2022-11-06T23:53:47.391Z,18.30
2022-11-06T23:56:14.388Z,18.45
2022-11-06T23:58:41.816Z,19.20
